sensor_id;sensor_type;location;lat;lon;timestamp;noise_LAeq;noise_LA_min;noise_LA_max;noise_LA01;noise_LA95
76100;Laerm;64828;49.956;8.636;2023-02-15T00:00:04;36.74;35.20;38.31;;
76100;Laerm;64828;49.956;8.636;2023-02-15T00:00:21;36.95;35.36;38.70;;
76100;Laerm;64828;49.956;8.636;2023-02-15T00:00:37;37.15;35.51;38.86;;
76100;Laerm;64828;49.956;8.636;2023-02-15T00:00:52;37.12;35.25;38.99;;
76100;Laerm;64828;49.956;8.636;2023-02-15T00:01:11;37.55;35.83;39.39;;
76100;Laerm;64828;49.956;8.636;2023-02-15T00:01:27;37.45;35.82;39.20;;
76100;Laerm;64828;49.956;8.636;2023-02-15T00:01:43;37.06;35.03;38.69;;
76100;Laerm;64828;49.956;8.636;2023-02-15T00:01:58;37.59;35.99;40.61;;
76100;Laerm;64828;49.956;8.636;2023-02-15T00:02:14;39.06;37.33;42.00;;
76100;Laerm;64828;49.956;8.636;2023-02-15T00:02:30;38.50;36.25;41.33;;
76100;Laerm;64828;49.956;8.636;2023-02-15T00:02:46;39.39;37.47;41.18;;
76100;Laerm;64828;49.956;8.636;2023-02-15T00:03:01;38.87;36.33;41.07;;
76100;Laerm;64828;49.956;8.636;2023-02-15T00:03:17;37.87;36.43;39.12;;
76100;Laerm;64828;49.956;8.636;2023-02-15T00:03:32;37.68;36.16;39.14;;
76100;Laerm;64828;49.956;8.636;2023-02-15T00:03:49;39.49;36.55;42.48;;
76100;Laerm;64828;49.956;8.636;2023-02-15T00:04:06;41.00;38.56;44.26;;
76100;Laerm;64828;49.956;8.636;2023-02-15T00:04:25;40.56;37.64;43.02;;
76100;Laerm;64828;49.956;8.636;2023-02-15T00:05:00;39.09;35.96;42.38;;
76100;Laerm;64828;49.956;8.636;2023-02-15T00:05:16;38.42;35.85;41.29;;
76100;Laerm;64828;49.956;8.636;2023-02-15T00:05:32;39.46;37.68;41.16;;
76100;Laerm;64828;49.956;8.636;2023-02-15T00:05:47;38.97;36.98;41.03;;
76100;Laerm;64828;49.956;8.636;2023-02-15T00:06:04;38.77;36.66;40.76;;
76100;Laerm;64828;49.956;8.636;2023-02-15T00:06:20;38.94;37.12;42.19;;
76100;Laerm;64828;49.956;8.636;2023-02-15T00:06:36;37.69;35.67;41.41;;
76100;Laerm;64828;49.956;8.636;2023-02-15T00:06:52;37.32;35.45;40.58;;
76100;Laerm;64828;49.956;8.636;2023-02-15T00:07:08;37.25;35.53;42.55;;
76100;Laerm;64828;49.956;8.636;2023-02-15T00:07:23;36.75;35.13;39.64;;
76100;Laerm;64828;49.956;8.636;2023-02-15T00:07:39;36.69;34.95;41.62;;
76100;Laerm;64828;49.956;8.636;2023-02-15T00:07:54;36.65;35.06;39.97;;
76100;Laerm;64828;49.956;8.636;2023-02-15T00:08:10;37.02;35.03;40.89;;
76100;Laerm;64828;49.956;8.636;2023-02-15T00:08:25;37.64;35.22;40.85;;
76100;Laerm;64828;49.956;8.636;2023-02-15T00:08:41;36.68;35.01;40.61;;
76100;Laerm;64828;49.956;8.636;2023-02-15T00:08:57;36.51;34.59;39.92;;
76100;Laerm;64828;49.956;8.636;2023-02-15T00:09:13;36.69;35.03;39.73;;
76100;Laerm;64828;49.956;8.636;2023-02-15T00:09:28;36.69;34.96;39.35;;
76100;Laerm;64828;49.956;8.636;2023-02-15T00:09:48;36.68;35.06;38.95;;
76100;Laerm;64828;49.956;8.636;2023-02-15T00:10:04;36.98;35.31;39.66;;
76100;Laerm;64828;49.956;8.636;2023-02-15T00:10:20;36.81;35.14;39.85;;
76100;Laerm;64828;49.956;8.636;2023-02-15T00:10:36;36.67;35.35;39.37;;
76100;Laerm;64828;49.956;8.636;2023-02-15T00:10:51;36.83;35.14;38.50;;
76100;Laerm;64828;49.956;8.636;2023-02-15T00:11:11;36.77;35.24;38.40;;
76100;Laerm;64828;49.956;8.636;2023-02-15T00:11:27;36.75;35.25;39.31;;
76100;Laerm;64828;49.956;8.636;2023-02-15T00:11:55;37.12;35.03;41.35;;
76100;Laerm;64828;49.956;8.636;2023-02-15T00:12:10;36.79;34.95;38.47;;
76100;Laerm;64828;49.956;8.636;2023-02-15T00:12:26;37.00;35.20;39.57;;
76100;Laerm;64828;49.956;8.636;2023-02-15T00:12:42;36.72;35.14;38.84;;
76100;Laerm;64828;49.956;8.636;2023-02-15T00:13:00;36.61;34.90;38.75;;
76100;Laerm;64828;49.956;8.636;2023-02-15T00:13:15;36.47;34.76;38.40;;
76100;Laerm;64828;49.956;8.636;2023-02-15T00:13:31;36.46;34.79;39.20;;
76100;Laerm;64828;49.956;8.636;2023-02-15T00:13:47;36.55;34.77;39.60;;
76100;Laerm;64828;49.956;8.636;2023-02-15T00:14:24;36.42;34.88;37.94;;
76100;Laerm;64828;49.956;8.636;2023-02-15T00:14:40;36.45;34.93;39.02;;
76100;Laerm;64828;49.956;8.636;2023-02-15T00:14:55;36.48;34.92;38.36;;
76100;Laerm;64828;49.956;8.636;2023-02-15T00:15:11;36.81;35.34;38.48;;
76100;Laerm;64828;49.956;8.636;2023-02-15T00:15:28;36.58;34.91;38.04;;
76100;Laerm;64828;49.956;8.636;2023-02-15T00:15:43;36.52;34.96;38.04;;
76100;Laerm;64828;49.956;8.636;2023-02-15T00:16:04;36.47;34.87;38.40;;
76100;Laerm;64828;49.956;8.636;2023-02-15T00:16:20;36.60;34.81;38.94;;
76100;Laerm;64828;49.956;8.636;2023-02-15T00:16:37;36.68;34.99;38.07;;
76100;Laerm;64828;49.956;8.636;2023-02-15T00:16:53;36.62;34.97;37.90;;
76100;Laerm;64828;49.956;8.636;2023-02-15T00:17:10;37.00;35.15;38.33;;
76100;Laerm;64828;49.956;8.636;2023-02-15T00:17:29;37.15;35.42;38.67;;
76100;Laerm;64828;49.956;8.636;2023-02-15T00:17:45;38.56;36.08;40.59;;
76100;Laerm;64828;49.956;8.636;2023-02-15T00:18:00;38.23;36.56;39.98;;
76100;Laerm;64828;49.956;8.636;2023-02-15T00:18:16;39.77;36.92;42.08;;
76100;Laerm;64828;49.956;8.636;2023-02-15T00:18:32;38.18;36.45;41.29;;
76100;Laerm;64828;49.956;8.636;2023-02-15T00:18:51;36.99;34.52;38.60;;
76100;Laerm;64828;49.956;8.636;2023-02-15T00:19:08;37.01;35.23;39.24;;
76100;Laerm;64828;49.956;8.636;2023-02-15T00:19:25;37.25;35.64;39.33;;
76100;Laerm;64828;49.956;8.636;2023-02-15T00:19:40;37.17;35.69;38.96;;
76100;Laerm;64828;49.956;8.636;2023-02-15T00:19:56;36.64;35.16;37.70;;
76100;Laerm;64828;49.956;8.636;2023-02-15T00:20:12;36.72;34.62;38.27;;
76100;Laerm;64828;49.956;8.636;2023-02-15T00:20:27;36.72;35.27;37.90;;
76100;Laerm;64828;49.956;8.636;2023-02-15T00:20:43;36.71;35.28;38.42;;
76100;Laerm;64828;49.956;8.636;2023-02-15T00:21:05;36.69;34.76;38.50;;
76100;Laerm;64828;49.956;8.636;2023-02-15T00:21:21;36.49;35.01;38.11;;
76100;Laerm;64828;49.956;8.636;2023-02-15T00:21:39;36.62;34.77;37.95;;
76100;Laerm;64828;49.956;8.636;2023-02-15T00:21:54;36.53;34.02;37.93;;
76100;Laerm;64828;49.956;8.636;2023-02-15T00:22:11;36.48;34.73;37.73;;
76100;Laerm;64828;49.956;8.636;2023-02-15T00:22:26;36.39;35.02;37.91;;
76100;Laerm;64828;49.956;8.636;2023-02-15T00:22:42;36.54;34.89;38.07;;
76100;Laerm;64828;49.956;8.636;2023-02-15T00:22:58;36.47;34.95;37.90;;
76100;Laerm;64828;49.956;8.636;2023-02-15T00:23:14;36.37;34.75;37.62;;
76100;Laerm;64828;49.956;8.636;2023-02-15T00:23:29;36.26;33.53;39.91;;
76100;Laerm;64828;49.956;8.636;2023-02-15T00:23:45;36.25;34.53;39.48;;
76100;Laerm;64828;49.956;8.636;2023-02-15T00:24:03;36.35;34.11;38.40;;
76100;Laerm;64828;49.956;8.636;2023-02-15T00:24:19;36.49;34.44;39.87;;
76100;Laerm;64828;49.956;8.636;2023-02-15T00:24:35;36.58;34.86;37.99;;
76100;Laerm;64828;49.956;8.636;2023-02-15T00:24:50;36.55;35.07;37.56;;
76100;Laerm;64828;49.956;8.636;2023-02-15T00:25:06;36.54;34.82;37.73;;
76100;Laerm;64828;49.956;8.636;2023-02-15T00:25:22;36.59;35.25;37.96;;
76100;Laerm;64828;49.956;8.636;2023-02-15T00:25:38;36.56;35.04;37.88;;
76100;Laerm;64828;49.956;8.636;2023-02-15T00:26:19;36.68;35.08;41.89;;
76100;Laerm;64828;49.956;8.636;2023-02-15T00:26:37;36.86;35.06;39.11;;
76100;Laerm;64828;49.956;8.636;2023-02-15T00:26:53;36.70;35.26;37.90;;
76100;Laerm;64828;49.956;8.636;2023-02-15T00:27:08;36.61;35.01;37.77;;
76100;Laerm;64828;49.956;8.636;2023-02-15T00:27:24;36.49;34.95;37.67;;
76100;Laerm;64828;49.956;8.636;2023-02-15T00:27:40;36.46;34.26;37.85;;
76100;Laerm;64828;49.956;8.636;2023-02-15T00:27:55;36.26;34.00;38.66;;
76100;Laerm;64828;49.956;8.636;2023-02-15T00:28:11;36.52;34.51;38.12;;
76100;Laerm;64828;49.956;8.636;2023-02-15T00:28:26;36.58;34.65;37.94;;
76100;Laerm;64828;49.956;8.636;2023-02-15T00:28:42;36.57;34.93;38.02;;
76100;Laerm;64828;49.956;8.636;2023-02-15T00:28:58;36.41;34.33;40.17;;
76100;Laerm;64828;49.956;8.636;2023-02-15T00:29:16;36.34;34.55;37.63;;
76100;Laerm;64828;49.956;8.636;2023-02-15T00:29:32;37.47;34.26;46.47;;
76100;Laerm;64828;49.956;8.636;2023-02-15T00:29:48;36.47;34.03;44.14;;
76100;Laerm;64828;49.956;8.636;2023-02-15T00:30:04;36.55;34.99;38.11;;
76100;Laerm;64828;49.956;8.636;2023-02-15T00:30:21;36.57;35.08;37.78;;
76100;Laerm;64828;49.956;8.636;2023-02-15T00:30:36;36.65;35.06;40.65;;
76100;Laerm;64828;49.956;8.636;2023-02-15T00:30:52;36.66;35.07;37.82;;
76100;Laerm;64828;49.956;8.636;2023-02-15T00:31:10;36.70;35.40;37.81;;
76100;Laerm;64828;49.956;8.636;2023-02-15T00:31:31;36.69;35.13;37.93;;
76100;Laerm;64828;49.956;8.636;2023-02-15T00:31:47;36.66;35.09;38.06;;
76100;Laerm;64828;49.956;8.636;2023-02-15T00:32:04;36.74;35.05;38.06;;
76100;Laerm;64828;49.956;8.636;2023-02-15T00:32:19;36.75;34.93;37.85;;
76100;Laerm;64828;49.956;8.636;2023-02-15T00:32:35;36.69;35.41;37.98;;
76100;Laerm;64828;49.956;8.636;2023-02-15T00:32:50;36.70;35.15;37.91;;
76100;Laerm;64828;49.956;8.636;2023-02-15T00:33:06;36.67;35.08;37.91;;
76100;Laerm;64828;49.956;8.636;2023-02-15T00:33:24;36.81;35.28;38.55;;
76100;Laerm;64828;49.956;8.636;2023-02-15T00:33:41;36.61;35.26;37.93;;
76100;Laerm;64828;49.956;8.636;2023-02-15T00:34:22;36.55;35.14;37.56;;
76100;Laerm;64828;49.956;8.636;2023-02-15T00:34:38;36.59;35.15;37.92;;
76100;Laerm;64828;49.956;8.636;2023-02-15T00:34:54;36.60;35.22;38.15;;
76100;Laerm;64828;49.956;8.636;2023-02-15T00:35:09;36.53;34.64;37.81;;
76100;Laerm;64828;49.956;8.636;2023-02-15T00:35:25;36.53;34.82;37.77;;
76100;Laerm;64828;49.956;8.636;2023-02-15T00:35:41;36.56;35.19;37.85;;
76100;Laerm;64828;49.956;8.636;2023-02-15T00:35:58;36.53;34.96;37.93;;
76100;Laerm;64828;49.956;8.636;2023-02-15T00:36:14;36.68;34.93;38.19;;
76100;Laerm;64828;49.956;8.636;2023-02-15T00:36:30;36.59;34.97;37.77;;
76100;Laerm;64828;49.956;8.636;2023-02-15T00:36:47;36.58;34.35;37.87;;
76100;Laerm;64828;49.956;8.636;2023-02-15T00:37:02;36.66;34.82;38.04;;
76100;Laerm;64828;49.956;8.636;2023-02-15T00:37:18;36.71;35.02;37.93;;
76100;Laerm;64828;49.956;8.636;2023-02-15T00:37:34;36.91;35.53;38.40;;
76100;Laerm;64828;49.956;8.636;2023-02-15T00:37:49;36.72;35.17;38.04;;
76100;Laerm;64828;49.956;8.636;2023-02-15T00:38:05;37.17;35.55;38.69;;
76100;Laerm;64828;49.956;8.636;2023-02-15T00:38:20;37.87;35.69;39.79;;
76100;Laerm;64828;49.956;8.636;2023-02-15T00:38:36;37.75;35.66;39.67;;
76100;Laerm;64828;49.956;8.636;2023-02-15T00:38:52;36.75;35.26;37.92;;
76100;Laerm;64828;49.956;8.636;2023-02-15T00:39:08;36.82;35.50;38.22;;
76100;Laerm;64828;49.956;8.636;2023-02-15T00:39:24;36.86;34.93;38.05;;
76100;Laerm;64828;49.956;8.636;2023-02-15T00:39:40;36.88;35.21;38.65;;
76100;Laerm;64828;49.956;8.636;2023-02-15T00:39:56;36.64;34.69;37.89;;
76100;Laerm;64828;49.956;8.636;2023-02-15T00:40:12;36.74;34.98;37.99;;
76100;Laerm;64828;49.956;8.636;2023-02-15T00:40:27;36.55;35.03;38.21;;
76100;Laerm;64828;49.956;8.636;2023-02-15T00:40:43;36.60;35.21;37.70;;
76100;Laerm;64828;49.956;8.636;2023-02-15T00:41:02;36.60;34.98;37.90;;
76100;Laerm;64828;49.956;8.636;2023-02-15T00:41:18;36.58;35.17;38.05;;
76100;Laerm;64828;49.956;8.636;2023-02-15T00:41:34;36.73;34.63;38.21;;
76100;Laerm;64828;49.956;8.636;2023-02-15T00:41:50;36.49;35.26;37.55;;
76100;Laerm;64828;49.956;8.636;2023-02-15T00:42:06;36.50;35.11;37.63;;
76100;Laerm;64828;49.956;8.636;2023-02-15T00:42:21;36.31;34.83;37.47;;
76100;Laerm;64828;49.956;8.636;2023-02-15T00:42:37;36.37;34.63;37.51;;
76100;Laerm;64828;49.956;8.636;2023-02-15T00:42:52;36.44;35.03;37.59;;
76100;Laerm;64828;49.956;8.636;2023-02-15T00:43:08;36.48;34.93;37.62;;
76100;Laerm;64828;49.956;8.636;2023-02-15T00:43:26;36.46;34.59;37.59;;
76100;Laerm;64828;49.956;8.636;2023-02-15T00:43:42;36.51;35.30;37.62;;
76100;Laerm;64828;49.956;8.636;2023-02-15T00:43:58;36.50;34.89;37.97;;
76100;Laerm;64828;49.956;8.636;2023-02-15T00:44:14;36.49;34.89;37.80;;
76100;Laerm;64828;49.956;8.636;2023-02-15T00:44:30;36.49;35.06;37.67;;
76100;Laerm;64828;49.956;8.636;2023-02-15T00:44:46;36.79;34.82;42.23;;
76100;Laerm;64828;49.956;8.636;2023-02-15T00:45:01;36.74;34.59;43.39;;
76100;Laerm;64828;49.956;8.636;2023-02-15T00:45:17;36.57;34.85;37.85;;
76100;Laerm;64828;49.956;8.636;2023-02-15T00:45:32;36.59;34.74;37.67;;
76100;Laerm;64828;49.956;8.636;2023-02-15T00:45:48;36.47;34.82;38.87;;
76100;Laerm;64828;49.956;8.636;2023-02-15T00:46:05;36.17;34.07;39.69;;
76100;Laerm;64828;49.956;8.636;2023-02-15T00:46:21;36.46;34.85;37.76;;
76100;Laerm;64828;49.956;8.636;2023-02-15T00:46:37;36.27;34.17;38.25;;
76100;Laerm;64828;49.956;8.636;2023-02-15T00:46:53;36.18;33.85;38.79;;
76100;Laerm;64828;49.956;8.636;2023-02-15T00:47:08;36.66;34.93;38.42;;
76100;Laerm;64828;49.956;8.636;2023-02-15T00:47:24;36.56;35.18;38.18;;
76100;Laerm;64828;49.956;8.636;2023-02-15T00:47:40;36.33;34.37;40.10;;
76100;Laerm;64828;49.956;8.636;2023-02-15T00:47:56;36.21;34.29;37.92;;
76100;Laerm;64828;49.956;8.636;2023-02-15T00:48:11;36.40;34.28;37.69;;
76100;Laerm;64828;49.956;8.636;2023-02-15T00:48:27;36.46;34.61;37.77;;
76100;Laerm;64828;49.956;8.636;2023-02-15T00:48:43;36.37;34.49;37.70;;
76100;Laerm;64828;49.956;8.636;2023-02-15T00:48:59;36.12;34.15;39.07;;
76100;Laerm;64828;49.956;8.636;2023-02-15T00:49:14;36.23;33.81;44.33;;
76100;Laerm;64828;49.956;8.636;2023-02-15T00:49:30;36.27;33.98;37.97;;
76100;Laerm;64828;49.956;8.636;2023-02-15T00:49:45;36.51;35.08;37.71;;
76100;Laerm;64828;49.956;8.636;2023-02-15T00:50:01;36.39;34.17;37.58;;
76100;Laerm;64828;49.956;8.636;2023-02-15T00:50:18;36.47;34.88;37.44;;
76100;Laerm;64828;49.956;8.636;2023-02-15T00:50:34;36.47;34.84;37.65;;
76100;Laerm;64828;49.956;8.636;2023-02-15T00:50:52;36.46;35.00;37.63;;
76100;Laerm;64828;49.956;8.636;2023-02-15T00:51:08;36.50;34.71;43.57;;
76100;Laerm;64828;49.956;8.636;2023-02-15T00:51:24;36.73;34.49;46.87;;
76100;Laerm;64828;49.956;8.636;2023-02-15T00:51:40;36.48;34.61;37.96;;
76100;Laerm;64828;49.956;8.636;2023-02-15T00:51:56;36.51;34.67;37.80;;
76100;Laerm;64828;49.956;8.636;2023-02-15T00:52:11;36.36;34.10;40.56;;
76100;Laerm;64828;49.956;8.636;2023-02-15T00:52:27;36.45;33.95;39.77;;
76100;Laerm;64828;49.956;8.636;2023-02-15T00:52:43;36.53;34.05;37.95;;
76100;Laerm;64828;49.956;8.636;2023-02-15T00:52:58;36.20;34.12;37.88;;
76100;Laerm;64828;49.956;8.636;2023-02-15T00:53:14;36.28;33.62;38.58;;
76100;Laerm;64828;49.956;8.636;2023-02-15T00:53:30;36.54;34.78;37.99;;
76100;Laerm;64828;49.956;8.636;2023-02-15T00:53:46;36.63;35.21;37.97;;
76100;Laerm;64828;49.956;8.636;2023-02-15T00:54:01;36.51;35.04;37.84;;
76100;Laerm;64828;49.956;8.636;2023-02-15T00:54:17;36.43;34.16;38.12;;
76100;Laerm;64828;49.956;8.636;2023-02-15T00:54:33;36.42;34.35;37.48;;
76100;Laerm;64828;49.956;8.636;2023-02-15T00:54:50;36.46;34.16;37.85;;
76100;Laerm;64828;49.956;8.636;2023-02-15T00:55:06;36.45;34.56;37.61;;
76100;Laerm;64828;49.956;8.636;2023-02-15T00:55:22;36.19;33.62;37.65;;
76100;Laerm;64828;49.956;8.636;2023-02-15T00:55:37;36.15;34.01;38.67;;
76100;Laerm;64828;49.956;8.636;2023-02-15T00:55:56;36.31;34.43;41.24;;
76100;Laerm;64828;49.956;8.636;2023-02-15T00:56:12;37.65;35.15;40.66;;
76100;Laerm;64828;49.956;8.636;2023-02-15T00:56:28;39.01;35.80;42.83;;
76100;Laerm;64828;49.956;8.636;2023-02-15T00:56:44;37.67;35.34;40.42;;
76100;Laerm;64828;49.956;8.636;2023-02-15T00:57:00;37.07;34.96;42.52;;
76100;Laerm;64828;49.956;8.636;2023-02-15T00:57:15;36.35;34.03;42.41;;
76100;Laerm;64828;49.956;8.636;2023-02-15T00:57:31;36.04;34.38;37.44;;
76100;Laerm;64828;49.956;8.636;2023-02-15T00:57:46;36.26;34.77;37.73;;
76100;Laerm;64828;49.956;8.636;2023-02-15T00:58:02;36.44;34.44;37.77;;
76100;Laerm;64828;49.956;8.636;2023-02-15T00:58:18;36.94;34.50;40.61;;
76100;Laerm;64828;49.956;8.636;2023-02-15T00:58:34;38.20;34.76;43.79;;
76100;Laerm;64828;49.956;8.636;2023-02-15T00:58:49;37.55;35.43;40.38;;
76100;Laerm;64828;49.956;8.636;2023-02-15T00:59:05;37.65;34.64;40.99;;
76100;Laerm;64828;49.956;8.636;2023-02-15T00:59:21;36.71;34.56;40.06;;
76100;Laerm;64828;49.956;8.636;2023-02-15T00:59:36;36.44;34.31;39.28;;
76100;Laerm;64828;49.956;8.636;2023-02-15T00:59:52;36.77;34.62;38.45;;
76100;Laerm;64828;49.956;8.636;2023-02-15T01:00:08;36.59;35.25;37.79;;
76100;Laerm;64828;49.956;8.636;2023-02-15T01:00:24;36.58;35.18;37.91;;
76100;Laerm;64828;49.956;8.636;2023-02-15T01:00:43;36.52;35.03;38.56;;
76100;Laerm;64828;49.956;8.636;2023-02-15T01:01:12;36.51;34.94;37.93;;
76100;Laerm;64828;49.956;8.636;2023-02-15T01:01:28;36.25;34.41;37.68;;
76100;Laerm;64828;49.956;8.636;2023-02-15T01:01:43;36.34;34.24;37.49;;
76100;Laerm;64828;49.956;8.636;2023-02-15T01:01:59;36.16;34.16;38.03;;
76100;Laerm;64828;49.956;8.636;2023-02-15T01:02:15;37.27;34.15;46.65;;
76100;Laerm;64828;49.956;8.636;2023-02-15T01:02:30;36.36;34.32;39.60;;
76100;Laerm;64828;49.956;8.636;2023-02-15T01:02:46;36.41;34.19;38.12;;
76100;Laerm;64828;49.956;8.636;2023-02-15T01:03:02;36.43;34.36;37.69;;
76100;Laerm;64828;49.956;8.636;2023-02-15T01:03:20;36.21;33.94;37.68;;
76100;Laerm;64828;49.956;8.636;2023-02-15T01:03:37;36.37;34.52;37.61;;
76100;Laerm;64828;49.956;8.636;2023-02-15T01:03:53;36.41;34.49;43.56;;
76100;Laerm;64828;49.956;8.636;2023-02-15T01:04:08;36.38;34.86;37.65;;
76100;Laerm;64828;49.956;8.636;2023-02-15T01:04:24;36.45;34.82;37.79;;
76100;Laerm;64828;49.956;8.636;2023-02-15T01:04:40;36.47;35.10;37.78;;
76100;Laerm;64828;49.956;8.636;2023-02-15T01:04:55;36.46;35.08;37.52;;
76100;Laerm;64828;49.956;8.636;2023-02-15T01:05:11;36.32;34.06;37.71;;
76100;Laerm;64828;49.956;8.636;2023-02-15T01:05:27;36.52;34.56;37.82;;
76100;Laerm;64828;49.956;8.636;2023-02-15T01:05:47;36.59;34.71;37.86;;
76100;Laerm;64828;49.956;8.636;2023-02-15T01:06:04;36.76;34.00;38.88;;
76100;Laerm;64828;49.956;8.636;2023-02-15T01:06:20;37.46;35.51;40.44;;
76100;Laerm;64828;49.956;8.636;2023-02-15T01:06:35;37.21;35.05;40.69;;
76100;Laerm;64828;49.956;8.636;2023-02-15T01:06:51;36.68;34.50;44.95;;
76100;Laerm;64828;49.956;8.636;2023-02-15T01:07:08;36.60;34.37;38.17;;
76100;Laerm;64828;49.956;8.636;2023-02-15T01:07:23;36.35;34.62;37.65;;
76100;Laerm;64828;49.956;8.636;2023-02-15T01:07:39;36.23;34.43;37.66;;
76100;Laerm;64828;49.956;8.636;2023-02-15T01:07:56;36.29;33.91;37.56;;
76100;Laerm;64828;49.956;8.636;2023-02-15T01:08:12;36.46;34.03;37.88;;
76100;Laerm;64828;49.956;8.636;2023-02-15T01:08:27;36.56;34.24;39.50;;
76100;Laerm;64828;49.956;8.636;2023-02-15T01:08:45;36.67;33.83;44.41;;
76100;Laerm;64828;49.956;8.636;2023-02-15T01:09:01;36.25;33.95;37.48;;
76100;Laerm;64828;49.956;8.636;2023-02-15T01:09:17;36.23;34.23;37.65;;
76100;Laerm;64828;49.956;8.636;2023-02-15T01:09:33;36.22;33.90;37.66;;
76100;Laerm;64828;49.956;8.636;2023-02-15T01:09:48;36.32;34.10;41.64;;
76100;Laerm;64828;49.956;8.636;2023-02-15T01:10:06;36.45;34.58;37.70;;
76100;Laerm;64828;49.956;8.636;2023-02-15T01:10:23;36.60;34.88;37.88;;
76100;Laerm;64828;49.956;8.636;2023-02-15T01:10:39;36.95;34.50;39.15;;
76100;Laerm;64828;49.956;8.636;2023-02-15T01:10:54;38.38;34.99;43.17;;
76100;Laerm;64828;49.956;8.636;2023-02-15T01:11:14;38.25;35.72;41.79;;
76100;Laerm;64828;49.956;8.636;2023-02-15T01:11:30;36.91;34.88;38.88;;
76100;Laerm;64828;49.956;8.636;2023-02-15T01:11:46;36.62;34.27;38.27;;
76100;Laerm;64828;49.956;8.636;2023-02-15T01:12:01;36.39;34.42;37.52;;
76100;Laerm;64828;49.956;8.636;2023-02-15T01:12:17;36.55;35.10;37.67;;
76100;Laerm;64828;49.956;8.636;2023-02-15T01:12:33;36.49;35.01;38.06;;
76100;Laerm;64828;49.956;8.636;2023-02-15T01:12:51;36.50;34.97;37.85;;
76100;Laerm;64828;49.956;8.636;2023-02-15T01:13:07;36.46;34.88;37.50;;
76100;Laerm;64828;49.956;8.636;2023-02-15T01:13:23;36.54;34.80;38.05;;
76100;Laerm;64828;49.956;8.636;2023-02-15T01:13:39;36.49;34.87;37.66;;
76100;Laerm;64828;49.956;8.636;2023-02-15T01:13:57;36.49;35.20;37.73;;
76100;Laerm;64828;49.956;8.636;2023-02-15T01:14:13;36.49;34.97;37.53;;
76100;Laerm;64828;49.956;8.636;2023-02-15T01:14:29;36.53;34.94;37.65;;
76100;Laerm;64828;49.956;8.636;2023-02-15T01:14:45;36.45;35.08;37.50;;
76100;Laerm;64828;49.956;8.636;2023-02-15T01:15:01;36.63;35.16;37.81;;
76100;Laerm;64828;49.956;8.636;2023-02-15T01:15:17;36.66;34.97;38.53;;
76100;Laerm;64828;49.956;8.636;2023-02-15T01:15:35;36.52;34.32;38.16;;
76100;Laerm;64828;49.956;8.636;2023-02-15T01:15:55;36.58;35.08;37.80;;
76100;Laerm;64828;49.956;8.636;2023-02-15T01:16:11;36.46;33.65;37.84;;
76100;Laerm;64828;49.956;8.636;2023-02-15T01:16:28;36.44;34.39;37.76;;
76100;Laerm;64828;49.956;8.636;2023-02-15T01:16:44;36.54;34.73;38.03;;
76100;Laerm;64828;49.956;8.636;2023-02-15T01:16:59;36.67;35.09;37.80;;
76100;Laerm;64828;49.956;8.636;2023-02-15T01:17:15;36.54;35.01;37.84;;
76100;Laerm;64828;49.956;8.636;2023-02-15T01:17:31;36.55;35.11;37.66;;
76100;Laerm;64828;49.956;8.636;2023-02-15T01:17:47;36.53;34.87;38.07;;
76100;Laerm;64828;49.956;8.636;2023-02-15T01:18:08;36.44;34.42;38.06;;
76100;Laerm;64828;49.956;8.636;2023-02-15T01:18:24;36.58;35.07;37.89;;
76100;Laerm;64828;49.956;8.636;2023-02-15T01:18:39;36.62;35.31;37.85;;
76100;Laerm;64828;49.956;8.636;2023-02-15T01:18:55;36.60;35.17;37.69;;
76100;Laerm;64828;49.956;8.636;2023-02-15T01:19:12;36.54;35.00;37.59;;
76100;Laerm;64828;49.956;8.636;2023-02-15T01:19:27;36.46;34.43;37.86;;
76100;Laerm;64828;49.956;8.636;2023-02-15T01:19:43;36.56;34.94;37.83;;
76100;Laerm;64828;49.956;8.636;2023-02-15T01:19:59;36.33;33.63;37.61;;
76100;Laerm;64828;49.956;8.636;2023-02-15T01:20:14;36.77;34.39;38.26;;
76100;Laerm;64828;49.956;8.636;2023-02-15T01:20:36;36.85;34.86;40.84;;
76100;Laerm;64828;49.956;8.636;2023-02-15T01:20:54;36.85;35.09;38.16;;
76100;Laerm;64828;49.956;8.636;2023-02-15T01:21:15;38.28;35.97;41.11;;
76100;Laerm;64828;49.956;8.636;2023-02-15T01:21:31;39.04;36.93;41.97;;
76100;Laerm;64828;49.956;8.636;2023-02-15T01:21:49;39.04;37.04;40.83;;
76100;Laerm;64828;49.956;8.636;2023-02-15T01:22:05;38.15;35.71;40.88;;
76100;Laerm;64828;49.956;8.636;2023-02-15T01:22:21;36.92;35.63;38.19;;
76100;Laerm;64828;49.956;8.636;2023-02-15T01:22:36;36.21;34.16;38.61;;
76100;Laerm;64828;49.956;8.636;2023-02-15T01:22:53;36.43;33.99;37.91;;
76100;Laerm;64828;49.956;8.636;2023-02-15T01:23:09;36.60;34.90;37.77;;
76100;Laerm;64828;49.956;8.636;2023-02-15T01:23:25;36.76;34.72;38.01;;
76100;Laerm;64828;49.956;8.636;2023-02-15T01:23:42;36.97;35.09;39.68;;
76100;Laerm;64828;49.956;8.636;2023-02-15T01:23:57;36.77;35.14;38.12;;
76100;Laerm;64828;49.956;8.636;2023-02-15T01:24:14;36.72;35.08;39.06;;
76100;Laerm;64828;49.956;8.636;2023-02-15T01:24:30;36.57;34.76;37.82;;
76100;Laerm;64828;49.956;8.636;2023-02-15T01:24:49;36.58;34.99;37.97;;
76100;Laerm;64828;49.956;8.636;2023-02-15T01:25:05;36.48;34.66;37.72;;
76100;Laerm;64828;49.956;8.636;2023-02-15T01:25:23;36.44;34.20;37.71;;
76100;Laerm;64828;49.956;8.636;2023-02-15T01:25:39;36.56;34.36;38.24;;
76100;Laerm;64828;49.956;8.636;2023-02-15T01:25:55;36.51;34.64;37.94;;
76100;Laerm;64828;49.956;8.636;2023-02-15T01:26:10;36.62;34.95;37.73;;
76100;Laerm;64828;49.956;8.636;2023-02-15T01:26:26;36.57;35.03;37.81;;
76100;Laerm;64828;49.956;8.636;2023-02-15T01:26:42;36.52;34.24;37.76;;
76100;Laerm;64828;49.956;8.636;2023-02-15T01:26:57;36.51;33.54;37.90;;
76100;Laerm;64828;49.956;8.636;2023-02-15T01:27:13;36.01;34.14;39.09;;
76100;Laerm;64828;49.956;8.636;2023-02-15T01:27:29;36.45;34.55;37.82;;
76100;Laerm;64828;49.956;8.636;2023-02-15T01:27:46;36.62;34.72;37.96;;
76100;Laerm;64828;49.956;8.636;2023-02-15T01:28:03;36.72;35.24;38.23;;
76100;Laerm;64828;49.956;8.636;2023-02-15T01:28:18;36.63;35.11;38.05;;
76100;Laerm;64828;49.956;8.636;2023-02-15T01:28:34;36.67;35.09;38.00;;
76100;Laerm;64828;49.956;8.636;2023-02-15T01:28:50;36.52;35.21;37.64;;
76100;Laerm;64828;49.956;8.636;2023-02-15T01:29:06;36.56;34.81;37.90;;
76100;Laerm;64828;49.956;8.636;2023-02-15T01:29:21;36.62;35.03;37.97;;
76100;Laerm;64828;49.956;8.636;2023-02-15T01:29:37;36.53;34.94;37.59;;
76100;Laerm;64828;49.956;8.636;2023-02-15T01:29:52;36.57;34.75;37.88;;
76100;Laerm;64828;49.956;8.636;2023-02-15T01:30:09;36.58;35.09;37.90;;
76100;Laerm;64828;49.956;8.636;2023-02-15T01:30:25;36.62;35.19;37.90;;
76100;Laerm;64828;49.956;8.636;2023-02-15T01:30:41;36.79;34.51;38.45;;
76100;Laerm;64828;49.956;8.636;2023-02-15T01:30:57;36.92;35.42;38.92;;
76100;Laerm;64828;49.956;8.636;2023-02-15T01:31:18;36.59;34.81;42.40;;
76100;Laerm;64828;49.956;8.636;2023-02-15T01:31:33;36.63;34.55;38.17;;
76100;Laerm;64828;49.956;8.636;2023-02-15T01:31:49;36.54;35.06;37.70;;
76100;Laerm;64828;49.956;8.636;2023-02-15T01:32:04;36.52;35.05;37.64;;
76100;Laerm;64828;49.956;8.636;2023-02-15T01:32:20;36.52;35.18;37.60;;
76100;Laerm;64828;49.956;8.636;2023-02-15T01:32:36;36.53;34.97;37.72;;